createdAt,value
2019-06-26T00:00:31.736Z,99.60
2019-06-26T00:03:02.777Z,99.40
2019-06-26T00:05:33.768Z,99.30
2019-06-26T00:08:05.191Z,99.10
2019-06-26T00:10:36.403Z,99.00
2019-06-26T00:13:07.477Z,99.00
2019-06-26T00:15:38.492Z,98.80
2019-06-26T00:18:09.432Z,98.90
2019-06-26T00:20:40.357Z,98.70
2019-06-26T00:23:11.384Z,98.60
2019-06-26T00:25:42.337Z,98.70
2019-06-26T00:28:13.259Z,98.40
2019-06-26T00:30:44.879Z,98.40
2019-06-26T00:33:15.804Z,98.50
2019-06-26T00:35:47.289Z,98.60
2019-06-26T00:38:18.452Z,98.50
2019-06-26T00:40:49.400Z,98.50
2019-06-26T00:43:20.312Z,98.30
2019-06-26T00:45:51.751Z,98.20
2019-06-26T00:48:22.675Z,98.20
2019-06-26T00:50:53.605Z,98.30
2019-06-26T00:53:24.543Z,98.30
2019-06-26T00:55:55.569Z,98.10
2019-06-26T00:58:26.450Z,97.90
2019-06-26T01:00:57.411Z,97.90
2019-06-26T01:03:28.660Z,97.90
2019-06-26T01:06:00.146Z,97.50
2019-06-26T01:08:31.611Z,97.40
2019-06-26T01:11:02.536Z,97.20
2019-06-26T01:13:34.154Z,97.00
2019-06-26T01:16:05.198Z,97.30
2019-06-26T01:18:36.121Z,96.70
2019-06-26T01:21:07.153Z,96.70
2019-06-26T01:23:38.089Z,96.70
2019-06-26T01:26:09.010Z,96.60
2019-06-26T01:28:40.032Z,96.60
2019-06-26T01:31:10.944Z,96.60
2019-06-26T01:33:42.157Z,96.50
2019-06-26T01:36:13.316Z,96.20
2019-06-26T01:38:44.206Z,96.30
2019-06-26T01:41:15.184Z,96.00
2019-06-26T01:43:46.120Z,95.90
2019-06-26T01:46:17.132Z,95.60
2019-06-26T01:48:48.429Z,95.40
2019-06-26T01:51:19.952Z,95.80
2019-06-26T01:53:51.097Z,95.60
2019-06-26T01:56:22.060Z,95.30
2019-06-26T01:58:53.063Z,95.20
2019-06-26T02:01:24.382Z,95.20
2019-06-26T02:03:55.447Z,94.90
2019-06-26T02:06:26.469Z,94.50
2019-06-26T02:08:57.407Z,94.20
2019-06-26T02:11:28.719Z,94.10
2019-06-26T02:13:59.742Z,93.90
2019-06-26T02:16:30.664Z,93.90
2019-06-26T02:19:03.100Z,93.70
2019-06-26T02:21:34.039Z,94.00
2019-06-26T02:24:04.974Z,93.60
2019-06-26T02:26:36.009Z,93.20
2019-06-26T02:29:06.927Z,93.30
2019-06-26T02:31:37.749Z,93.00
2019-06-26T02:34:08.784Z,93.20
2019-06-26T02:36:39.727Z,93.80
2019-06-26T02:39:10.648Z,93.80
2019-06-26T02:41:41.752Z,93.60
2019-06-26T02:44:12.676Z,93.50
2019-06-26T02:46:43.985Z,93.00
2019-06-26T02:49:15.552Z,92.90
2019-06-26T02:51:46.471Z,92.90
2019-06-26T02:54:17.424Z,92.70
2019-06-26T02:56:48.432Z,92.90
2019-06-26T02:59:19.544Z,92.80
2019-06-26T03:01:50.801Z,92.80
2019-06-26T03:04:21.823Z,92.80
2019-06-26T03:06:52.766Z,92.60
2019-06-26T03:09:23.692Z,92.40
2019-06-26T03:11:54.719Z,92.30
2019-06-26T03:14:25.721Z,92.20
2019-06-26T03:16:57.028Z,92.30
2019-06-26T03:19:27.893Z,92.20
2019-06-26T03:21:58.836Z,92.00
2019-06-26T03:24:29.639Z,92.00
2019-06-26T03:27:00.689Z,92.10
2019-06-26T03:29:31.611Z,91.80
2019-06-26T03:32:02.519Z,92.00
2019-06-26T03:34:34.030Z,92.10
2019-06-26T03:37:05.113Z,92.30
2019-06-26T03:39:36.065Z,92.00
2019-06-26T03:42:07.067Z,91.80
2019-06-26T03:44:38.116Z,91.90
2019-06-26T03:47:09.011Z,91.90
2019-06-26T03:49:40.412Z,91.70
2019-06-26T03:52:11.355Z,91.70
2019-06-26T03:54:42.278Z,91.60
2019-06-26T03:57:13.329Z,91.60
2019-06-26T03:59:44.265Z,92.00
2019-06-26T04:02:15.189Z,92.10
2019-06-26T04:04:46.215Z,92.00
2019-06-26T04:07:17.121Z,92.20
2019-06-26T04:09:48.232Z,91.70
2019-06-26T04:12:19.390Z,91.90
2019-06-26T04:14:50.328Z,91.90
2019-06-26T04:17:22.122Z,91.70
2019-06-26T04:19:53.277Z,91.90
2019-06-26T04:22:24.192Z,91.80
2019-06-26T04:25:22.023Z,91.70
2019-06-26T04:27:53.233Z,91.40
2019-06-26T04:30:24.394Z,91.60
2019-06-26T04:32:55.420Z,91.40
2019-06-26T04:35:26.203Z,91.50
2019-06-26T04:37:57.394Z,91.60
2019-06-26T04:40:28.406Z,90.80
2019-06-26T04:42:59.324Z,90.60
2019-06-26T04:45:30.534Z,90.50
2019-06-26T04:48:01.691Z,90.60
2019-06-26T04:50:32.992Z,90.50
2019-06-26T04:53:03.939Z,90.60
2019-06-26T04:55:34.958Z,90.40
2019-06-26T04:58:05.916Z,90.60
2019-06-26T05:00:37.199Z,90.40
2019-06-26T05:03:08.359Z,90.50
2019-06-26T05:05:40.252Z,90.20
2019-06-26T05:08:11.601Z,90.30
2019-06-26T05:10:42.756Z,90.40
2019-06-26T05:13:33.883Z,90.50
2019-06-26T05:16:14.287Z,89.60
2019-06-26T05:18:37.983Z,90.00
2019-06-26T05:21:09.151Z,90.20
2019-06-26T05:23:40.076Z,89.80
2019-06-26T05:26:11.010Z,89.90
2019-06-26T05:28:42.041Z,89.80
2019-06-26T05:31:12.960Z,89.50
2019-06-26T05:33:43.880Z,89.20
2019-06-26T05:36:15.011Z,89.00
2019-06-26T05:38:45.942Z,88.80
2019-06-26T05:41:16.853Z,89.60
2019-06-26T05:43:47.895Z,90.00
2019-06-26T05:46:30.623Z,89.70
2019-06-26T05:48:51.460Z,89.90
2019-06-26T05:51:22.705Z,89.50
2019-06-26T05:53:53.620Z,90.20
2019-06-26T05:56:24.656Z,90.20
2019-06-26T05:58:55.579Z,90.20
2019-06-26T06:01:26.491Z,90.00
2019-06-26T06:03:57.543Z,89.50
2019-06-26T06:06:41.219Z,89.50
2019-06-26T06:09:00.891Z,89.90
2019-06-26T06:11:31.837Z,89.00
2019-06-26T06:14:02.716Z,89.20
2019-06-26T06:16:46.214Z,90.00
2019-06-26T06:19:06.315Z,89.00
2019-06-26T06:21:37.343Z,89.20
2019-06-26T06:24:08.292Z,89.50
2019-06-26T06:26:39.202Z,89.40
2019-06-26T06:29:10.236Z,89.20
2019-06-26T06:31:41.521Z,89.00
2019-06-26T06:34:12.598Z,87.80
2019-06-26T06:36:43.641Z,88.20
2019-06-26T06:39:14.570Z,88.20
2019-06-26T06:41:45.487Z,88.70
2019-06-26T06:44:16.478Z,88.00
2019-06-26T06:47:02.808Z,88.50
2019-06-26T06:49:19.957Z,88.30
2019-06-26T06:51:50.992Z,87.40
2019-06-26T06:54:22.424Z,87.50
2019-06-26T06:56:53.351Z,87.40
2019-06-26T06:59:24.391Z,86.70
2019-06-26T07:01:55.314Z,86.60
2019-06-26T07:04:26.235Z,86.40
2019-06-26T07:06:58.817Z,87.90
2019-06-26T07:09:29.579Z,87.30
2019-06-26T07:12:00.512Z,87.50
2019-06-26T07:14:31.814Z,87.80
2019-06-26T07:17:18.883Z,88.10
2019-06-26T07:19:35.540Z,88.70
2019-06-26T07:22:11.730Z,87.80
2019-06-26T07:24:42.779Z,87.40
2019-06-26T07:27:13.796Z,87.80
2019-06-26T07:29:45.014Z,88.60
2019-06-26T07:32:16.081Z,88.20
2019-06-26T07:34:47.113Z,88.00
2019-06-26T07:37:18.299Z,88.80
2019-06-26T07:39:49.481Z,88.20
2019-06-26T07:42:20.666Z,88.70
2019-06-26T07:44:51.830Z,89.30
2019-06-26T07:47:32.540Z,89.10
2019-06-26T07:49:55.188Z,89.90
2019-06-26T07:52:26.093Z,90.30
2019-06-26T07:54:57.029Z,90.10
2019-06-26T07:57:28.277Z,90.00
2019-06-26T07:59:59.289Z,89.60
2019-06-26T08:02:30.232Z,89.40
2019-06-26T08:05:01.251Z,90.10
2019-06-26T08:07:32.207Z,90.60
2019-06-26T08:10:03.245Z,90.00
2019-06-26T08:12:34.341Z,90.10
2019-06-26T08:15:05.955Z,90.10
2019-06-26T08:17:36.915Z,90.20
2019-06-26T08:20:08.315Z,89.90
2019-06-26T08:22:39.250Z,90.50
2019-06-26T08:25:10.174Z,90.00
2019-06-26T08:27:41.116Z,89.90
2019-06-26T08:30:12.449Z,90.00
2019-06-26T08:32:43.387Z,90.10
2019-06-26T08:35:14.621Z,90.20
2019-06-26T08:37:45.615Z,90.20
2019-06-26T08:40:16.671Z,90.50
2019-06-26T08:42:47.586Z,90.10
2019-06-26T08:45:18.973Z,90.00
2019-06-26T08:47:49.954Z,90.20
2019-06-26T08:50:20.876Z,89.90
2019-06-26T08:52:51.806Z,90.00
2019-06-26T08:55:22.759Z,90.10
2019-06-26T08:57:53.792Z,90.20
2019-06-26T09:00:25.300Z,90.10
2019-06-26T09:02:56.383Z,89.80
2019-06-26T09:05:27.427Z,90.10
2019-06-26T09:07:58.504Z,89.90
2019-06-26T09:10:30.204Z,89.70
2019-06-26T09:13:01.965Z,90.10
2019-06-26T09:15:33.763Z,90.20
2019-06-26T09:18:04.970Z,89.60
2019-06-26T09:20:42.908Z,89.90
2019-06-26T09:23:14.243Z,90.10
2019-06-26T09:25:45.991Z,89.90
2019-06-26T09:28:17.848Z,90.00
2019-06-26T09:30:49.600Z,90.30
2019-06-26T09:33:20.713Z,90.40
2019-06-26T09:35:51.619Z,90.50
2019-06-26T09:38:22.548Z,90.30
2019-06-26T09:40:53.493Z,90.30
2019-06-26T09:43:24.411Z,90.50
2019-06-26T09:45:55.438Z,90.70
2019-06-26T09:48:26.396Z,90.80
2019-06-26T09:50:57.407Z,91.10
2019-06-26T09:53:42.429Z,91.40
2019-06-26T09:56:00.745Z,91.80
2019-06-26T09:58:31.688Z,92.00
2019-06-26T10:01:02.740Z,92.10
2019-06-26T10:03:33.957Z,92.30
2019-06-26T10:06:05.147Z,93.00
2019-06-26T10:08:36.304Z,93.40
2019-06-26T10:11:08.026Z,93.70
2019-06-26T10:13:39.227Z,93.40
2019-06-26T10:16:10.429Z,93.50
2019-06-26T10:18:41.427Z,93.80
2019-06-26T10:21:12.731Z,93.90
2019-06-26T10:23:43.606Z,94.10
2019-06-26T10:26:15.326Z,94.30
2019-06-26T10:28:46.335Z,94.00
2019-06-26T10:31:18.482Z,94.10
2019-06-26T10:33:49.699Z,94.20
2019-06-26T10:36:24.183Z,94.00
2019-06-26T10:38:53.069Z,94.20
2019-06-26T10:41:23.979Z,94.00
2019-06-26T10:43:55.030Z,94.00
2019-06-26T10:46:25.919Z,94.30
2019-06-26T10:48:56.654Z,94.40
2019-06-26T10:51:27.465Z,94.50
2019-06-26T10:53:58.539Z,94.80
2019-06-26T10:56:29.628Z,95.10
2019-06-26T10:59:00.686Z,95.20
2019-06-26T11:01:31.724Z,94.80
2019-06-26T11:04:02.676Z,94.80
2019-06-26T11:06:36.902Z,94.70
2019-06-26T11:09:08.582Z,94.40
2019-06-26T11:11:39.574Z,94.20
2019-06-26T11:14:10.489Z,94.20
2019-06-26T11:16:41.413Z,95.60
2019-06-26T11:19:13.177Z,96.60
2019-06-26T11:21:44.480Z,96.70
2019-06-26T11:24:15.523Z,97.50
2019-06-26T11:26:47.216Z,98.10
2019-06-26T11:29:18.420Z,98.00
2019-06-26T11:31:49.491Z,98.70
2019-06-26T11:34:20.528Z,99.10
2019-06-26T11:37:02.983Z,99.50
2019-06-26T11:39:23.903Z,99.60
2019-06-26T11:41:54.974Z,99.90
2019-06-26T11:44:25.985Z,99.90
2019-06-26T11:46:56.967Z,99.90
2019-06-26T11:49:27.985Z,99.90
2019-06-26T11:51:58.953Z,99.90
2019-06-26T11:54:30.143Z,99.90
2019-06-26T11:57:01.195Z,99.90
2019-06-26T11:59:32.079Z,99.90
2019-06-26T12:02:03.292Z,99.90
2019-06-26T12:04:34.443Z,99.90
2019-06-26T12:07:25.990Z,99.90
2019-06-26T12:09:57.157Z,99.90
2019-06-26T12:12:28.168Z,99.90
2019-06-26T12:15:19.351Z,99.90
2019-06-26T12:17:50.443Z,99.90
2019-06-26T12:20:21.482Z,99.90
2019-06-26T12:22:52.899Z,99.90
2019-06-26T12:25:23.837Z,99.90
2019-06-26T12:27:54.755Z,99.90
2019-06-26T12:30:25.882Z,99.90
2019-06-26T12:33:02.990Z,99.90
2019-06-26T12:35:29.510Z,99.90
2019-06-26T12:38:00.586Z,99.90
2019-06-26T12:40:31.567Z,99.90
2019-06-26T12:43:02.538Z,99.90
2019-06-26T12:45:33.462Z,99.90
2019-06-26T12:48:04.523Z,99.90
2019-06-26T12:50:36.286Z,99.90
2019-06-26T12:53:07.353Z,99.90
2019-06-26T12:55:38.376Z,99.90
2019-06-26T12:58:14.095Z,99.90
2019-06-26T13:00:41.728Z,99.90
2019-06-26T13:03:12.670Z,99.90
2019-06-26T13:05:43.608Z,99.90
2019-06-26T13:08:15.297Z,99.90
2019-06-26T13:10:50.117Z,99.90
2019-06-26T13:13:18.792Z,99.90
2019-06-26T13:15:51.136Z,99.90
2019-06-26T13:18:22.270Z,99.90
2019-06-26T13:20:53.826Z,99.90
2019-06-26T13:23:25.291Z,99.90
2019-06-26T13:25:56.320Z,99.90
2019-06-26T13:28:27.135Z,99.90
2019-06-26T13:30:58.090Z,99.90
2019-06-26T13:33:28.980Z,99.90
2019-06-26T13:35:59.958Z,99.90
2019-06-26T13:38:31.154Z,99.90
2019-06-26T13:41:02.423Z,99.90
2019-06-26T13:43:33.440Z,99.90
2019-06-26T13:46:04.340Z,99.90
2019-06-26T13:48:35.857Z,99.90
2019-06-26T13:51:09.626Z,99.90
2019-06-26T13:53:39.361Z,99.90
2019-06-26T13:56:11.777Z,99.90
2019-06-26T13:58:42.823Z,99.90
2019-06-26T14:01:14.003Z,99.90
2019-06-26T14:03:45.248Z,99.90
2019-06-26T14:06:16.369Z,99.90
2019-06-26T14:08:47.479Z,99.90
2019-06-26T14:11:18.872Z,99.90
2019-06-26T14:13:49.775Z,99.90
2019-06-26T14:16:20.813Z,99.90
2019-06-26T14:18:51.728Z,99.90
2019-06-26T14:21:25.941Z,99.90
2019-06-26T14:23:55.497Z,99.90
2019-06-26T14:26:26.447Z,99.90
2019-06-26T14:28:57.380Z,99.90
2019-06-26T14:31:28.257Z,99.90
2019-06-26T14:33:59.493Z,99.90
2019-06-26T14:36:30.431Z,99.90
2019-06-26T14:39:01.518Z,99.90
2019-06-26T14:41:32.519Z,99.90
2019-06-26T14:44:03.470Z,99.90
2019-06-26T14:46:34.366Z,99.90
2019-06-26T14:49:05.579Z,99.90
2019-06-26T14:51:43.867Z,99.90
2019-06-26T14:54:08.975Z,99.90
2019-06-26T14:56:40.087Z,99.90
2019-06-26T14:59:11.023Z,99.90
2019-06-26T15:01:41.952Z,99.90
2019-06-26T15:04:12.978Z,99.90
2019-06-26T15:06:43.914Z,99.90
2019-06-26T15:09:14.845Z,99.90
2019-06-26T15:11:45.864Z,99.90
2019-06-26T15:14:17.164Z,99.90
2019-06-26T15:16:48.104Z,99.60
2019-06-26T15:19:19.122Z,99.50
2019-06-26T15:21:58.256Z,99.50
2019-06-26T15:24:22.483Z,99.40
2019-06-26T15:26:55.215Z,99.50
2019-06-26T15:29:26.181Z,99.40
2019-06-26T15:31:57.112Z,99.30
2019-06-26T15:34:28.501Z,99.10
2019-06-26T15:36:59.448Z,98.80
2019-06-26T15:39:30.376Z,98.90
2019-06-26T15:42:01.411Z,98.90
2019-06-26T15:44:32.349Z,99.00
2019-06-26T15:47:03.376Z,99.10
2019-06-26T15:49:34.396Z,99.00
2019-06-26T15:52:14.589Z,98.80
2019-06-26T15:54:37.779Z,98.80
2019-06-26T15:57:08.692Z,98.80
2019-06-26T15:59:39.888Z,98.80
2019-06-26T16:02:11.039Z,98.80
2019-06-26T16:04:41.975Z,98.80
2019-06-26T16:07:12.935Z,98.80
2019-06-26T16:09:44.093Z,98.70
2019-06-26T16:12:15.044Z,98.70
2019-06-26T16:14:46.349Z,98.70
2019-06-26T16:17:19.487Z,98.60
2019-06-26T16:19:50.555Z,98.60
2019-06-26T16:22:31.617Z,98.40
2019-06-26T16:24:53.887Z,98.20
2019-06-26T16:27:25.144Z,98.10
2019-06-26T16:29:56.079Z,98.20
2019-06-26T16:32:26.955Z,98.10
2019-06-26T16:34:57.932Z,98.00
2019-06-26T16:37:28.844Z,98.40
2019-06-26T16:39:59.754Z,98.00
2019-06-26T16:42:30.984Z,98.10
2019-06-26T16:45:02.048Z,98.20
2019-06-26T16:47:33.080Z,98.20
2019-06-26T16:50:04.004Z,98.10
2019-06-26T16:52:48.761Z,98.10
2019-06-26T16:55:08.678Z,98.10
2019-06-26T16:57:39.605Z,97.90
2019-06-26T17:00:11.087Z,98.10
2019-06-26T17:02:42.134Z,98.10
2019-06-26T17:05:14.354Z,98.10
2019-06-26T17:08:04.552Z,98.10
2019-06-26T17:10:35.516Z,98.20
2019-06-26T17:13:06.444Z,98.20
2019-06-26T17:15:37.603Z,98.10
2019-06-26T17:18:09.004Z,98.10
2019-06-26T17:20:39.924Z,98.10
2019-06-26T17:23:10.941Z,98.00
2019-06-26T17:25:43.094Z,97.90
2019-06-26T17:28:14.477Z,98.00
2019-06-26T17:30:45.543Z,97.80
2019-06-26T17:33:16.475Z,97.90
2019-06-26T17:35:47.509Z,97.90
2019-06-26T17:38:18.432Z,98.00
2019-06-26T17:40:49.364Z,97.90
2019-06-26T17:43:20.394Z,98.00
2019-06-26T17:45:51.322Z,98.60
2019-06-26T17:48:22.227Z,98.40
2019-06-26T17:50:53.253Z,98.40
2019-06-26T17:53:24.228Z,98.30
2019-06-26T17:55:55.228Z,98.10
2019-06-26T17:58:26.276Z,98.00
2019-06-26T18:00:57.198Z,98.00
2019-06-26T18:03:27.993Z,97.90
2019-06-26T18:05:59.056Z,97.90
2019-06-26T18:08:30.235Z,97.90
2019-06-26T18:11:01.404Z,97.70
2019-06-26T18:13:32.435Z,97.80
2019-06-26T18:16:03.269Z,97.70
2019-06-26T18:18:34.172Z,97.60
2019-06-26T18:21:05.202Z,97.60
2019-06-26T18:23:38.454Z,97.40
2019-06-26T18:26:13.528Z,97.30
2019-06-26T18:28:41.011Z,97.40
2019-06-26T18:31:12.106Z,97.30
2019-06-26T18:33:44.395Z,97.30
2019-06-26T18:36:15.604Z,97.30
2019-06-26T18:38:46.549Z,97.40
2019-06-26T18:41:18.625Z,97.40
2019-06-26T18:43:49.803Z,97.40
2019-06-26T18:46:20.723Z,97.50
2019-06-26T18:48:51.664Z,97.50
2019-06-26T18:51:22.661Z,97.60
2019-06-26T18:53:54.105Z,97.70
2019-06-26T18:56:25.136Z,97.80
2019-06-26T18:58:56.062Z,97.90
2019-06-26T19:01:27.091Z,97.90
2019-06-26T19:03:58.000Z,97.80
2019-06-26T19:06:28.799Z,97.90
2019-06-26T19:08:59.859Z,98.00
2019-06-26T19:11:30.878Z,98.10
2019-06-26T19:14:01.710Z,98.00
2019-06-26T19:16:36.153Z,98.10
2019-06-26T19:19:05.095Z,98.50
2019-06-26T19:21:37.071Z,97.90
2019-06-26T19:24:10.491Z,97.80
2019-06-26T19:26:40.648Z,98.20
2019-06-26T19:29:11.623Z,97.80
2019-06-26T19:31:42.536Z,97.80
2019-06-26T19:34:13.951Z,97.80
2019-06-26T19:36:50.025Z,97.80
2019-06-26T19:39:20.500Z,97.80
2019-06-26T19:41:49.668Z,97.80
2019-06-26T19:44:20.604Z,97.80
2019-06-26T19:46:51.512Z,97.90
2019-06-26T19:49:22.535Z,97.90
2019-06-26T19:51:53.842Z,97.80
2019-06-26T19:54:27.820Z,97.80
2019-06-26T19:56:57.339Z,97.80
2019-06-26T19:59:28.132Z,97.70
2019-06-26T20:01:59.127Z,97.80
2019-06-26T20:04:30.246Z,97.90
2019-06-26T20:07:01.535Z,97.80
2019-06-26T20:09:32.591Z,97.80
2019-06-26T20:12:03.616Z,97.90
2019-06-26T20:14:34.556Z,97.80
2019-06-26T20:17:05.484Z,97.80
2019-06-26T20:19:36.504Z,97.80
2019-06-26T20:22:07.463Z,97.80
2019-06-26T20:24:43.992Z,97.90
2019-06-26T20:27:10.892Z,98.00
2019-06-26T20:29:41.827Z,98.40
2019-06-26T20:32:12.847Z,98.20
2019-06-26T20:34:43.872Z,98.20
2019-06-26T20:37:15.188Z,98.20
2019-06-26T20:39:46.436Z,98.20
2019-06-26T20:42:17.591Z,98.10
2019-06-26T20:44:48.609Z,98.10
2019-06-26T20:47:19.530Z,98.40
2019-06-26T20:49:53.557Z,98.00
2019-06-26T20:52:22.890Z,98.00
2019-06-26T20:55:01.014Z,97.90
2019-06-26T20:57:26.251Z,97.90
2019-06-26T20:59:57.188Z,97.90
2019-06-26T21:02:27.969Z,97.70
2019-06-26T21:04:59.266Z,97.60
2019-06-26T21:07:30.269Z,97.60
2019-06-26T21:10:01.196Z,97.60
2019-06-26T21:12:32.215Z,97.60
2019-06-26T21:15:03.158Z,97.60
2019-06-26T21:17:34.079Z,97.60
2019-06-26T21:20:05.111Z,97.60
2019-06-26T21:22:36.290Z,97.60
2019-06-26T21:25:18.539Z,97.50
2019-06-26T21:27:42.747Z,97.50
2019-06-26T21:30:13.839Z,97.60
2019-06-26T21:32:44.776Z,97.50
2019-06-26T21:35:16.156Z,97.50
2019-06-26T21:37:47.409Z,97.50
2019-06-26T21:40:18.842Z,97.60
2019-06-26T21:42:49.775Z,97.60
2019-06-26T21:45:22.648Z,97.60
2019-06-26T21:47:53.636Z,97.60
2019-06-26T21:50:24.575Z,97.50
2019-06-26T21:52:56.336Z,97.60
2019-06-26T21:55:34.167Z,97.70
2019-06-26T21:58:00.027Z,97.80
2019-06-26T22:00:33.665Z,97.80
2019-06-26T22:03:04.805Z,97.90
2019-06-26T22:05:35.739Z,97.90
2019-06-26T22:08:06.670Z,97.90
2019-06-26T22:10:37.713Z,97.90
2019-06-26T22:13:08.647Z,98.00
2019-06-26T22:15:39.601Z,98.10
2019-06-26T22:18:10.695Z,98.10
2019-06-26T22:20:41.633Z,98.20
2019-06-26T22:23:12.964Z,98.20
2019-06-26T22:25:50.899Z,98.20
2019-06-26T22:28:16.596Z,98.20
2019-06-26T22:30:47.664Z,98.30
2019-06-26T22:33:18.771Z,98.40
2019-06-26T22:35:49.703Z,98.40
2019-06-26T22:38:20.639Z,98.50
2019-06-26T22:40:51.665Z,98.70
2019-06-26T22:43:22.975Z,98.80
2019-06-26T22:45:53.903Z,98.70
2019-06-26T22:48:24.949Z,98.70
2019-06-26T22:50:55.887Z,98.60
2019-06-26T22:53:26.830Z,98.50
2019-06-26T22:56:07.708Z,98.20
2019-06-26T22:58:30.366Z,98.20
2019-06-26T23:01:01.567Z,98.20
2019-06-26T23:03:32.635Z,98.10
2019-06-26T23:06:04.254Z,98.10
2019-06-26T23:08:35.284Z,98.20
2019-06-26T23:11:06.332Z,98.30
2019-06-26T23:13:37.366Z,98.20
2019-06-26T23:16:08.488Z,98.20
2019-06-26T23:18:39.518Z,98.00
2019-06-26T23:21:10.449Z,97.80
2019-06-26T23:23:41.870Z,97.60
2019-06-26T23:26:23.585Z,97.30
2019-06-26T23:28:45.127Z,97.30
2019-06-26T23:31:16.004Z,97.30
2019-06-26T23:33:47.247Z,97.30
2019-06-26T23:36:18.296Z,97.30
2019-06-26T23:38:49.316Z,97.30
2019-06-26T23:41:20.271Z,97.10
2019-06-26T23:43:51.202Z,97.00
2019-06-26T23:46:22.623Z,96.90
2019-06-26T23:48:53.571Z,96.90
2019-06-26T23:51:24.639Z,97.00
2019-06-26T23:53:55.718Z,97.00
2019-06-26T23:56:39.575Z,97.00
2019-06-26T23:58:58.959Z,96.80
